EZY269 EGKK-EHAM
Flight info
| Callsign | EZY269 |
|---|---|
| Flight time | N/A |
| Altitude | 29000 |
| Route | FRANE M604 GASBA M197 REDFA |
| Aircraft | A20N/M-SDE2E3FGHIRWXY/LB1 |
Departure
| Time | 2026-05-06 19:08 |
|---|---|
| Airport | London Gatwick Airport (EGKK) |
Arrival
| Time | N/A |
|---|---|
| Airport | Amsterdam Airport Schiphol (EHAM) |
| Time | Latitude | Longitude | Altitude | Speed | Heading |
|---|---|---|---|---|---|
| 2026-05-06 18:38 | 51.15400 | -0.16409 | 201 ft | 0 kts | 76° |
| 2026-05-06 18:44 | 51.15398 | -0.16420 | 213 ft | 2 kts | 76° |
| 2026-05-06 18:44 | 51.15395 | -0.16441 | 209 ft | 2 kts | 76° |
| 2026-05-06 18:44 | 51.15392 | -0.16456 | 201 ft | 2 kts | 76° |
| 2026-05-06 18:45 | 51.15387 | -0.16483 | 214 ft | 2 kts | 44° |
| 2026-05-06 18:45 | 51.15379 | -0.16493 | 212 ft | 1 kts | 0° |
| 2026-05-06 18:45 | 51.15377 | -0.16494 | 211 ft | 0 kts | 348° |
| 2026-05-06 18:47 | 51.15378 | -0.16494 | 211 ft | 1 kts | 348° |
| 2026-05-06 18:48 | 51.15407 | -0.16504 | 209 ft | 7 kts | 349° |
| 2026-05-06 18:48 | 51.15463 | -0.16544 | 206 ft | 9 kts | 291° |
| 2026-05-06 18:48 | 51.15446 | -0.16681 | 207 ft | 16 kts | 256° |
| 2026-05-06 18:48 | 51.15443 | -0.16870 | 206 ft | 20 kts | 255° |
| 2026-05-06 18:49 | 51.15411 | -0.17106 | 206 ft | 24 kts | 256° |
| 2026-05-06 18:49 | 51.15359 | -0.17331 | 213 ft | 17 kts | 238° |
| 2026-05-06 18:49 | 51.15295 | -0.17493 | 207 ft | 20 kts | 259° |
| 2026-05-06 18:49 | 51.15262 | -0.17729 | 209 ft | 24 kts | 257° |
| 2026-05-06 18:50 | 51.15224 | -0.18011 | 209 ft | 27 kts | 259° |
| 2026-05-06 18:50 | 51.15182 | -0.18323 | 210 ft | 29 kts | 259° |
| 2026-05-06 18:50 | 51.15139 | -0.18665 | 210 ft | 33 kts | 257° |
| 2026-05-06 18:50 | 51.15090 | -0.19027 | 205 ft | 32 kts | 258° |
| 2026-05-06 18:51 | 51.15045 | -0.19353 | 204 ft | 30 kts | 258° |
| 2026-05-06 18:51 | 51.14997 | -0.19702 | 211 ft | 34 kts | 258° |
| 2026-05-06 18:51 | 51.14947 | -0.20075 | 209 ft | 33 kts | 258° |
| 2026-05-06 18:51 | 51.14900 | -0.20408 | 211 ft | 28 kts | 257° |
| 2026-05-06 18:52 | 51.14866 | -0.20659 | 202 ft | 21 kts | 257° |
| 2026-05-06 18:52 | 51.14831 | -0.20906 | 202 ft | 23 kts | 257° |
| 2026-05-06 18:52 | 51.14810 | -0.21064 | 206 ft | 2 kts | 258° |
| 2026-05-06 18:52 | 51.14810 | -0.21067 | 206 ft | 0 kts | 258° |
| 2026-05-06 18:53 | 51.14809 | -0.21070 | 211 ft | 2 kts | 258° |
| 2026-05-06 18:53 | 51.14807 | -0.21084 | 207 ft | 0 kts | 257° |
| 2026-05-06 18:53 | 51.14804 | -0.21107 | 206 ft | 5 kts | 257° |
| 2026-05-06 18:54 | 51.14783 | -0.21196 | 206 ft | 12 kts | 250° |
| 2026-05-06 18:54 | 51.14768 | -0.21299 | 210 ft | 0 kts | 258° |
| 2026-05-06 18:55 | 51.14766 | -0.21317 | 205 ft | 5 kts | 258° |
| 2026-05-06 18:55 | 51.14746 | -0.21394 | 205 ft | 10 kts | 221° |
| 2026-05-06 18:55 | 51.14702 | -0.21396 | 201 ft | 0 kts | 166° |
| 2026-05-06 18:57 | 51.14696 | -0.21394 | 204 ft | 4 kts | 166° |
| 2026-05-06 18:57 | 51.14658 | -0.21353 | 214 ft | 10 kts | 131° |
| 2026-05-06 18:57 | 51.14624 | -0.21325 | 204 ft | 0 kts | 172° |
| 2026-05-06 19:00 | 51.14616 | -0.21323 | 201 ft | 3 kts | 171° |
| 2026-05-06 19:00 | 51.14581 | -0.21309 | 208 ft | 7 kts | 162° |
| 2026-05-06 19:00 | 51.14534 | -0.21251 | 209 ft | 12 kts | 126° |
| 2026-05-06 19:01 | 51.14522 | -0.21106 | 205 ft | 15 kts | 77° |
| 2026-05-06 19:01 | 51.14607 | -0.20496 | 208 ft | 83 kts | 77° |
| 2026-05-06 19:01 | 51.14662 | -0.20094 | 208 ft | 16 kts | 78° |
| 2026-05-06 19:01 | 51.14686 | -0.19985 | 213 ft | 10 kts | 64° |
| 2026-05-06 19:02 | 51.14709 | -0.19876 | 205 ft | 12 kts | 95° |
| 2026-05-06 19:02 | 51.14725 | -0.19643 | 208 ft | 26 kts | 77° |
| 2026-05-06 19:02 | 51.14767 | -0.19344 | 205 ft | 30 kts | 78° |
| 2026-05-06 19:02 | 51.14824 | -0.18924 | 207 ft | 41 kts | 78° |
| 2026-05-06 19:03 | 51.14895 | -0.18607 | 212 ft | 25 kts | 57° |
| 2026-05-06 19:03 | 51.15003 | -0.18390 | 209 ft | 25 kts | 51° |
| 2026-05-06 19:03 | 51.15096 | -0.18207 | 205 ft | 14 kts | 50° |
| 2026-05-06 19:03 | 51.15174 | -0.18205 | 212 ft | 14 kts | 329° |
| 2026-05-06 19:04 | 51.15179 | -0.18358 | 207 ft | 17 kts | 259° |
| 2026-05-06 19:04 | 51.15151 | -0.18580 | 205 ft | 23 kts | 259° |
| 2026-05-06 19:04 | 51.15112 | -0.18856 | 215 ft | 25 kts | 257° |
| 2026-05-06 19:04 | 51.15087 | -0.19040 | 214 ft | 19 kts | 258° |
| 2026-05-06 19:05 | 51.15052 | -0.19246 | 208 ft | 11 kts | 233° |
| 2026-05-06 19:05 | 51.14987 | -0.19265 | 208 ft | 10 kts | 190° |
| 2026-05-06 19:05 | 51.14946 | -0.19377 | 209 ft | 15 kts | 259° |
| 2026-05-06 19:05 | 51.14930 | -0.19506 | 207 ft | 10 kts | 259° |
| 2026-05-06 19:06 | 51.14908 | -0.19667 | 210 ft | 27 kts | 257° |
| 2026-05-06 19:06 | 51.14859 | -0.20002 | 203 ft | 34 kts | 257° |
| 2026-05-06 19:06 | 51.14805 | -0.20390 | 201 ft | 35 kts | 258° |
| 2026-05-06 19:06 | 51.14768 | -0.20655 | 211 ft | 19 kts | 244° |
| 2026-05-06 19:07 | 51.14645 | -0.20692 | 208 ft | 19 kts | 167° |
| 2026-05-06 19:07 | 51.14601 | -0.20546 | 211 ft | 13 kts | 85° |
| 2026-05-06 19:07 | 51.14605 | -0.20512 | 206 ft | 0 kts | 77° |
| 2026-05-06 19:07 | 51.14623 | -0.20378 | 209 ft | 54 kts | 77° |
| 2026-05-06 19:08 | 51.14785 | -0.19210 | 224 ft | 154 kts | 77° |
| 2026-05-06 19:08 | 51.15013 | -0.17448 | 1122 ft | 170 kts | 77° |
| 2026-05-06 19:08 | 51.15259 | -0.15558 | 2386 ft | 176 kts | 74° |
| 2026-05-06 19:08 | 51.15555 | -0.13558 | 3274 ft | 199 kts | 74° |
| 2026-05-06 19:09 | 51.15892 | -0.11271 | 4168 ft | 224 kts | 74° |
| 2026-05-06 19:09 | 51.16265 | -0.08656 | 4775 ft | 259 kts | 76° |
| 2026-05-06 19:09 | 51.16654 | -0.05803 | 5127 ft | 266 kts | 76° |
| 2026-05-06 19:09 | 51.16895 | -0.02858 | 5517 ft | 271 kts | 86° |
| 2026-05-06 19:10 | 51.16845 | 0.00156 | 5899 ft | 271 kts | 91° |
| 2026-05-06 19:10 | 51.16781 | 0.03168 | 6289 ft | 272 kts | 91° |
| 2026-05-06 19:10 | 51.16723 | 0.06162 | 6667 ft | 275 kts | 91° |
| 2026-05-06 19:10 | 51.16665 | 0.09222 | 7037 ft | 279 kts | 91° |
| 2026-05-06 19:11 | 51.16608 | 0.12319 | 7411 ft | 281 kts | 91° |
| 2026-05-06 19:11 | 51.16793 | 0.15392 | 7783 ft | 280 kts | 70° |
| 2026-05-06 19:11 | 51.17782 | 0.18043 | 8172 ft | 279 kts | 43° |
| 2026-05-06 19:11 | 51.19337 | 0.19878 | 8570 ft | 280 kts | 31° |
| 2026-05-06 19:12 | 51.20978 | 0.21560 | 8967 ft | 281 kts | 31° |
| 2026-05-06 19:12 | 51.22628 | 0.23264 | 9359 ft | 283 kts | 31° |
| 2026-05-06 19:12 | 51.24288 | 0.24984 | 9773 ft | 286 kts | 31° |
| 2026-05-06 19:12 | 51.25965 | 0.26716 | 10148 ft | 292 kts | 31° |
| 2026-05-06 19:13 | 51.27668 | 0.28483 | 10557 ft | 289 kts | 31° |
| 2026-05-06 19:13 | 51.29369 | 0.30248 | 10912 ft | 294 kts | 31° |
| 2026-05-06 19:13 | 51.31077 | 0.32020 | 11094 ft | 292 kts | 31° |
| 2026-05-06 19:13 | 51.32784 | 0.33799 | 11349 ft | 294 kts | 31° |
| 2026-05-06 19:14 | 51.34510 | 0.35592 | 11626 ft | 295 kts | 31° |
| 2026-05-06 19:14 | 51.36227 | 0.37388 | 11906 ft | 296 kts | 31° |
| 2026-05-06 19:14 | 51.37958 | 0.39203 | 12244 ft | 297 kts | 31° |
| 2026-05-06 19:14 | 51.39711 | 0.40978 | 12580 ft | 299 kts | 28° |
| 2026-05-06 19:15 | 51.41523 | 0.42615 | 12923 ft | 300 kts | 26° |
| 2026-05-06 19:15 | 51.43362 | 0.44214 | 13272 ft | 301 kts | 26° |
| 2026-05-06 19:15 | 51.45186 | 0.45806 | 13625 ft | 303 kts | 26° |
| 2026-05-06 19:15 | 51.47055 | 0.47460 | 13953 ft | 304 kts | 27° |
| 2026-05-06 19:16 | 51.48912 | 0.49120 | 14274 ft | 307 kts | 27° |
| 2026-05-06 19:16 | 51.50751 | 0.50776 | 14579 ft | 308 kts | 27° |
| 2026-05-06 19:16 | 51.52626 | 0.52470 | 14905 ft | 310 kts | 27° |
| 2026-05-06 19:16 | 51.54518 | 0.54182 | 15223 ft | 312 kts | 27° |
| 2026-05-06 19:17 | 51.56414 | 0.55899 | 15555 ft | 314 kts | 27° |
| 2026-05-06 19:17 | 51.58322 | 0.57629 | 15894 ft | 315 kts | 27° |
| 2026-05-06 19:17 | 51.60239 | 0.59368 | 16234 ft | 317 kts | 27° |
| 2026-05-06 19:17 | 51.62180 | 0.61080 | 16560 ft | 318 kts | 21° |
| 2026-05-06 19:18 | 51.64314 | 0.61895 | 16908 ft | 317 kts | 2° |
| 2026-05-06 19:18 | 51.66519 | 0.61996 | 17256 ft | 318 kts | 359° |
| 2026-05-06 19:18 | 51.68710 | 0.62363 | 17600 ft | 322 kts | 11° |
| 2026-05-06 19:18 | 51.70834 | 0.63601 | 17959 ft | 327 kts | 25° |
| 2026-05-06 19:19 | 51.72775 | 0.65548 | 18318 ft | 331 kts | 34° |
| 2026-05-06 19:19 | 51.74572 | 0.67891 | 18626 ft | 333 kts | 39° |
| 2026-05-06 19:19 | 51.76301 | 0.70421 | 18940 ft | 336 kts | 41° |
| 2026-05-06 19:19 | 51.78007 | 0.73017 | 19262 ft | 338 kts | 41° |
| 2026-05-06 19:20 | 51.79718 | 0.75636 | 19580 ft | 340 kts | 41° |